Time;durP1;ratioP1;P1;durP2;ratioP2;P2;SDS_P1;SDS_P2;PMS_P1;PMS_P2;Temp;Humidity;BMP_temperature;BMP_pressure;BME280_temperature;BME280_humidity;BME280_pressure;Samples;Min_cycle;Max_cycle;Signal;HPM_P1;HPM_P2
2023/01/30 00:00:13;;;;;;;33.57;28.27;;;;;;;;;;517543;28;1374;-65
2023/01/30 00:00:29;;;;;;;35.15;29.27;;;;;;;;;;519732;28;1254;-66
2023/01/30 00:00:44;;;;;;;34.43;28.70;;;;;;;;;;520027;28;1568;-65
2023/01/30 00:01:03;;;;;;;33.67;28.45;;;;;;;;;;519697;28;1236;-65
2023/01/30 00:01:20;;;;;;;33.35;28.45;;;;;;;;;;518994;28;1419;-65
2023/01/30 00:01:36;;;;;;;34.40;28.50;;;;;;;;;;519276;28;1454;-66
2023/01/30 00:01:51;;;;;;;34.90;28.93;;;;;;;;;;521622;28;1334;-66
2023/01/30 00:02:06;;;;;;;33.92;28.83;;;;;;;;;;523815;28;1231;-66
2023/01/30 00:02:22;;;;;;;35.37;29.30;;;;;;;;;;522407;28;1216;-66
2023/01/30 00:02:37;;;;;;;35.05;29.17;;;;;;;;;;519478;28;1449;-66
2023/01/30 00:02:52;;;;;;;33.53;29.27;;;;;;;;;;521045;28;1241;-66
2023/01/30 00:03:08;;;;;;;34.17;28.93;;;;;;;;;;523281;28;1347;-66
2023/01/30 00:03:23;;;;;;;33.83;28.27;;;;;;;;;;523073;28;1109;-66
2023/01/30 00:03:39;;;;;;;34.00;28.63;;;;;;;;;;521396;28;1356;-65
2023/01/30 00:03:54;;;;;;;35.33;29.00;;;;;;;;;;521118;28;1201;-66
2023/01/30 00:04:13;;;;;;;35.10;28.03;;;;;;;;;;522564;28;1406;-66
2023/01/30 00:04:28;;;;;;;34.92;28.15;;;;;;;;;;519946;28;1306;-66
2023/01/30 00:04:44;;;;;;;34.30;28.60;;;;;;;;;;517731;28;1544;-65
2023/01/30 00:04:59;;;;;;;32.15;27.63;;;;;;;;;;519848;28;1456;-65
2023/01/30 00:05:14;;;;;;;33.37;27.60;;;;;;;;;;522101;28;1204;-66
2023/01/30 00:05:30;;;;;;;34.23;28.17;;;;;;;;;;522593;28;1212;-65
2023/01/30 00:05:45;;;;;;;33.70;28.52;;;;;;;;;;522564;28;1271;-66
2023/01/30 00:06:00;;;;;;;32.70;28.23;;;;;;;;;;522993;28;1317;-65
2023/01/30 00:06:16;;;;;;;31.23;27.23;;;;;;;;;;522712;28;1242;-65
2023/01/30 00:06:32;;;;;;;30.85;26.60;;;;;;;;;;523071;28;1435;-65
2023/01/30 00:06:47;;;;;;;32.10;27.25;;;;;;;;;;523223;28;1254;-65
2023/01/30 00:07:02;;;;;;;31.83;27.60;;;;;;;;;;523741;28;1247;-66
2023/01/30 00:07:17;;;;;;;31.23;27.03;;;;;;;;;;520980;28;1208;-66
2023/01/30 00:07:33;;;;;;;31.60;26.97;;;;;;;;;;521238;28;1240;-66
2023/01/30 00:07:48;;;;;;;31.57;27.27;;;;;;;;;;521314;28;1409;-66
2023/01/30 00:08:03;;;;;;;31.23;27.07;;;;;;;;;;520100;28;1429;-66
2023/01/30 00:08:19;;;;;;;31.83;27.30;;;;;;;;;;519000;28;1324;-66
2023/01/30 00:08:35;;;;;;;32.28;27.13;;;;;;;;;;518240;28;1137;-66
2023/01/30 00:08:51;;;;;;;30.97;26.30;;;;;;;;;;522306;28;1286;-65
2023/01/30 00:09:08;;;;;;;30.70;26.23;;;;;;;;;;523670;28;1246;-66
2023/01/30 00:09:24;;;;;;;30.55;26.33;;;;;;;;;;521568;28;1230;-65
2023/01/30 00:09:40;;;;;;;29.50;26.30;;;;;;;;;;522727;28;1268;-65
2023/01/30 00:09:55;;;;;;;30.15;26.45;;;;;;;;;;521560;28;1385;-65
2023/01/30 00:10:10;;;;;;;32.17;27.03;;;;;;;;;;522168;28;1271;-66
2023/01/30 00:10:25;;;;;;;31.38;26.65;;;;;;;;;;524511;28;1272;-66
2023/01/30 00:10:41;;;;;;;30.03;26.23;;;;;;;;;;523514;28;1168;-65
2023/01/30 00:10:56;;;;;;;30.60;26.53;;;;;;;;;;522632;28;1916;-65
2023/01/30 00:11:14;;;;;;;31.63;27.00;;;;;;;;;;521369;28;1198;-64
2023/01/30 00:11:32;;;;;;;33.35;27.83;;;;;;;;;;521660;28;1429;-65
2023/01/30 00:11:47;;;;;;;32.67;27.80;;;;;;;;;;519879;28;1585;-65
2023/01/30 00:12:02;;;;;;;32.50;27.48;;;;;;;;;;520616;28;1353;-66
2023/01/30 00:12:18;;;;;;;32.00;27.70;;;;;;;;;;516858;28;1333;-65
2023/01/30 00:12:33;;;;;;;31.90;27.55;;;;;;;;;;518912;28;1236;-65
2023/01/30 00:12:48;;;;;;;32.07;27.33;;;;;;;;;;519302;28;1317;-65
2023/01/30 00:13:04;;;;;;;33.47;27.97;;;;;;;;;;519895;28;1199;-64
2023/01/30 00:13:19;;;;;;;33.00;27.88;;;;;;;;;;520155;28;1224;-65
2023/01/30 00:13:35;;;;;;;31.93;27.60;;;;;;;;;;518943;28;1200;-65
2023/01/30 00:13:50;;;;;;;32.75;27.65;;;;;;;;;;519302;28;1311;-65
2023/01/30 00:14:05;;;;;;;32.93;28.03;;;;;;;;;;520617;28;1220;-65
2023/01/30 00:14:21;;;;;;;32.73;28.00;;;;;;;;;;522845;28;1545;-65
2023/01/30 00:14:36;;;;;;;33.30;27.93;;;;;;;;;;518504;28;1253;-66
2023/01/30 00:14:51;;;;;;;34.47;28.70;;;;;;;;;;516394;28;1263;-65
2023/01/30 00:15:07;;;;;;;34.97;28.87;;;;;;;;;;517931;28;1513;-65
2023/01/30 00:15:23;;;;;;;33.75;28.35;;;;;;;;;;519190;28;1374;-65
2023/01/30 00:15:38;;;;;;;32.17;27.60;;;;;;;;;;523658;28;1384;-65
2023/01/30 00:15:53;;;;;;;32.37;27.83;;;;;;;;;;521912;28;1369;-65
2023/01/30 00:16:09;;;;;;;32.83;28.07;;;;;;;;;;523072;28;1353;-65
2023/01/30 00:16:25;;;;;;;32.17;27.80;;;;;;;;;;524086;28;1420;-64
2023/01/30 00:16:41;;;;;;;33.75;28.65;;;;;;;;;;521915;28;1254;-65
2023/01/30 00:16:56;;;;;;;35.05;29.23;;;;;;;;;;521345;28;1694;-65
2023/01/30 00:17:12;;;;;;;35.78;29.48;;;;;;;;;;520627;28;1359;-65
2023/01/30 00:17:27;;;;;;;35.33;29.37;;;;;;;;;;520627;28;1018;-65
2023/01/30 00:17:42;;;;;;;33.80;28.67;;;;;;;;;;517006;28;1318;-65
2023/01/30 00:17:58;;;;;;;33.97;28.55;;;;;;;;;;519572;28;1314;-65
2023/01/30 00:18:13;;;;;;;34.03;28.43;;;;;;;;;;520309;28;1354;-65
2023/01/30 00:18:28;;;;;;;33.23;28.40;;;;;;;;;;519715;28;1181;-65
2023/01/30 00:18:43;;;;;;;32.67;28.10;;;;;;;;;;518677;28;1078;-64
2023/01/30 00:18:59;;;;;;;32.60;27.53;;;;;;;;;;519892;28;1353;-65
2023/01/30 00:19:14;;;;;;;33.30;27.50;;;;;;;;;;519713;28;1223;-64
2023/01/30 00:19:29;;;;;;;33.57;27.93;;;;;;;;;;521520;28;1282;-65
2023/01/30 00:19:44;;;;;;;32.33;27.60;;;;;;;;;;518403;28;1264;-65
2023/01/30 00:20:00;;;;;;;31.47;27.03;;;;;;;;;;517517;28;1389;-64
2023/01/30 00:20:15;;;;;;;31.80;27.50;;;;;;;;;;519029;28;1270;-65
2023/01/30 00:20:31;;;;;;;32.25;27.90;;;;;;;;;;519846;28;1359;-65
2023/01/30 00:20:46;;;;;;;32.80;27.97;;;;;;;;;;520874;28;1273;-65
2023/01/30 00:21:04;;;;;;;32.45;27.83;;;;;;;;;;520453;28;1589;-65
2023/01/30 00:21:19;;;;;;;31.92;27.85;;;;;;;;;;520459;28;1247;-65
2023/01/30 00:21:34;;;;;;;32.17;27.30;;;;;;;;;;519366;28;1216;-65
2023/01/30 00:21:49;;;;;;;32.57;27.40;;;;;;;;;;519128;28;1256;-65
2023/01/30 00:22:05;;;;;;;33.10;27.73;;;;;;;;;;517908;28;1367;-65
2023/01/30 00:22:20;;;;;;;32.95;28.00;;;;;;;;;;517741;28;1279;-65
2023/01/30 00:22:35;;;;;;;33.07;28.53;;;;;;;;;;518234;28;1319;-65
2023/01/30 00:22:51;;;;;;;34.10;28.77;;;;;;;;;;517999;28;1386;-65
2023/01/30 00:23:06;;;;;;;34.47;28.65;;;;;;;;;;520579;28;1517;-65
2023/01/30 00:23:21;;;;;;;34.10;28.63;;;;;;;;;;519597;28;1299;-65
2023/01/30 00:23:37;;;;;;;33.37;28.37;;;;;;;;;;519519;28;1281;-65
2023/01/30 00:23:53;;;;;;;33.03;27.60;;;;;;;;;;521634;28;1546;-65
2023/01/30 00:24:08;;;;;;;32.85;27.60;;;;;;;;;;521190;28;1377;-65
2023/01/30 00:24:23;;;;;;;31.53;27.00;;;;;;;;;;521407;28;1263;-65
2023/01/30 00:24:39;;;;;;;30.53;26.27;;;;;;;;;;520146;28;1425;-65
2023/01/30 00:24:54;;;;;;;31.95;27.33;;;;;;;;;;522127;28;1242;-65
2023/01/30 00:25:09;;;;;;;32.73;27.63;;;;;;;;;;519292;28;1126;-65
2023/01/30 00:25:26;;;;;;;31.87;26.90;;;;;;;;;;520587;28;1427;-65
2023/01/30 00:25:44;;;;;;;32.05;27.35;;;;;;;;;;524527;28;1263;-64
2023/01/30 00:25:59;;;;;;;31.45;27.60;;;;;;;;;;525892;27;1437;-65
2023/01/30 00:26:15;;;;;;;32.60;28.15;;;;;;;;;;523730;28;1277;-65
2023/01/30 00:26:30;;;;;;;32.20;28.03;;;;;;;;;;525232;28;1309;-66
2023/01/30 00:26:46;;;;;;;31.77;27.33;;;;;;;;;;523548;28;1345;-65
2023/01/30 00:27:01;;;;;;;32.15;27.23;;;;;;;;;;524339;28;1148;-64
2023/01/30 00:27:16;;;;;;;32.77;27.60;;;;;;;;;;521506;28;1343;-65
2023/01/30 00:27:31;;;;;;;32.23;27.27;;;;;;;;;;520720;28;1394;-65
2023/01/30 00:27:47;;;;;;;32.67;27.60;;;;;;;;;;521227;28;1357;-65
2023/01/30 00:28:02;;;;;;;32.53;27.57;;;;;;;;;;524320;28;1362;-65
2023/01/30 00:28:18;;;;;;;30.97;26.90;;;;;;;;;;522302;28;1198;-65
2023/01/30 00:28:33;;;;;;;30.95;27.02;;;;;;;;;;522167;28;1295;-64
2023/01/30 00:28:48;;;;;;;31.02;26.70;;;;;;;;;;519673;28;1191;-64
2023/01/30 00:29:04;;;;;;;31.60;27.07;;;;;;;;;;521170;28;1462;-64
2023/01/30 00:29:19;;;;;;;31.77;27.47;;;;;;;;;;521101;28;1341;-63
2023/01/30 00:29:34;;;;;;;30.67;27.20;;;;;;;;;;521044;28;1199;-63
2023/01/30 00:29:50;;;;;;;30.93;26.93;;;;;;;;;;519229;28;1492;-64
2023/01/30 00:30:06;;;;;;;32.13;27.20;;;;;;;;;;519271;28;1373;-65
2023/01/30 00:30:21;;;;;;;31.73;27.25;;;;;;;;;;518669;28;1154;-65
2023/01/30 00:30:36;;;;;;;30.77;26.52;;;;;;;;;;519749;28;1214;-64
2023/01/30 00:30:53;;;;;;;31.87;27.20;;;;;;;;;;519609;28;1977;-65
2023/01/30 00:31:09;;;;;;;31.90;27.45;;;;;;;;;;521636;28;1354;-65
2023/01/30 00:31:24;;;;;;;30.63;26.20;;;;;;;;;;523392;28;1279;-65
2023/01/30 00:31:39;;;;;;;32.33;26.83;;;;;;;;;;520625;28;1213;-66
2023/01/30 00:31:55;;;;;;;34.20;28.27;;;;;;;;;;521529;28;1461;-65
2023/01/30 00:32:10;;;;;;;33.47;28.43;;;;;;;;;;520097;28;1117;-65
2023/01/30 00:32:26;;;;;;;32.83;27.85;;;;;;;;;;521421;28;1389;-65
2023/01/30 00:32:41;;;;;;;31.83;27.27;;;;;;;;;;522151;28;1423;-65
2023/01/30 00:32:58;;;;;;;32.10;27.47;;;;;;;;;;521705;28;1552;-65
2023/01/30 00:33:13;;;;;;;30.77;26.80;;;;;;;;;;523927;28;1231;-65
2023/01/30 00:33:29;;;;;;;29.30;25.90;;;;;;;;;;522565;28;1295;-65
2023/01/30 00:33:44;;;;;;;30.58;26.25;;;;;;;;;;521517;28;1471;-65
2023/01/30 00:33:59;;;;;;;31.60;27.07;;;;;;;;;;519247;28;1235;-65
2023/01/30 00:34:15;;;;;;;31.17;26.90;;;;;;;;;;519692;28;1271;-65
2023/01/30 00:34:30;;;;;;;30.73;26.27;;;;;;;;;;519785;28;1374;-65
2023/01/30 00:34:45;;;;;;;30.37;25.93;;;;;;;;;;517611;28;1467;-65
2023/01/30 00:35:01;;;;;;;30.20;26.37;;;;;;;;;;520105;28;1408;-65
2023/01/30 00:35:16;;;;;;;29.77;26.33;;;;;;;;;;522462;28;1220;-65
2023/01/30 00:35:31;;;;;;;30.03;26.00;;;;;;;;;;519571;28;1231;-65
2023/01/30 00:35:49;;;;;;;30.07;25.63;;;;;;;;;;523106;28;1280;-65
2023/01/30 00:36:04;;;;;;;30.33;26.40;;;;;;;;;;521890;28;1264;-64
2023/01/30 00:36:20;;;;;;;29.90;26.03;;;;;;;;;;523390;28;1504;-65
2023/01/30 00:36:35;;;;;;;29.45;25.63;;;;;;;;;;522943;28;1334;-64
2023/01/30 00:36:50;;;;;;;30.93;27.10;;;;;;;;;;521531;28;1293;-65
2023/01/30 00:37:06;;;;;;;30.03;26.73;;;;;;;;;;521190;28;1100;-64
2023/01/30 00:37:21;;;;;;;29.55;26.15;;;;;;;;;;521524;28;1410;-64
2023/01/30 00:37:36;;;;;;;29.93;26.23;;;;;;;;;;520016;28;1328;-65
2023/01/30 00:37:51;;;;;;;29.47;25.90;;;;;;;;;;522016;28;1312;-65
2023/01/30 00:38:07;;;;;;;29.88;25.85;;;;;;;;;;521081;28;1395;-64
2023/01/30 00:38:23;;;;;;;31.57;26.90;;;;;;;;;;518134;28;1208;-64
2023/01/30 00:38:38;;;;;;;30.88;26.63;;;;;;;;;;521358;28;1360;-65
2023/01/30 00:38:55;;;;;;;30.50;26.00;;;;;;;;;;519453;28;1381;-65
2023/01/30 00:39:11;;;;;;;30.58;26.08;;;;;;;;;;520072;28;1268;-65
2023/01/30 00:39:26;;;;;;;30.00;26.07;;;;;;;;;;521596;28;1274;-67
2023/01/30 00:39:41;;;;;;;29.95;26.33;;;;;;;;;;521281;28;1426;-65
2023/01/30 00:39:57;;;;;;;29.93;26.20;;;;;;;;;;521703;28;1372;-65
2023/01/30 00:40:12;;;;;;;31.30;26.57;;;;;;;;;;522034;28;1272;-65
2023/01/30 00:40:28;;;;;;;31.90;26.83;;;;;;;;;;521428;28;1190;-65
2023/01/30 00:40:43;;;;;;;31.17;26.42;;;;;;;;;;521259;28;1329;-66
2023/01/30 00:40:59;;;;;;;30.57;26.47;;;;;;;;;;521450;28;1197;-66
2023/01/30 00:41:16;;;;;;;30.60;27.00;;;;;;;;;;521017;28;1503;-66
2023/01/30 00:47:04;;;;;;;32.25;26.98;;;;;;;;;;530233;27;1065;-66
2023/01/30 00:47:20;;;;;;;30.23;26.20;;;;;;;;;;526941;27;1073;-65
2023/01/30 00:47:36;;;;;;;31.20;26.35;;;;;;;;;;525430;28;1246;-65
2023/01/30 00:47:51;;;;;;;33.47;27.03;;;;;;;;;;523010;28;1368;-66
2023/01/30 00:48:07;;;;;;;32.97;27.13;;;;;;;;;;521214;28;1321;-65
2023/01/30 00:48:22;;;;;;;31.30;26.40;;;;;;;;;;522382;28;1216;-66
2023/01/30 00:48:37;;;;;;;31.37;26.43;;;;;;;;;;524009;28;1440;-65
2023/01/30 00:48:53;;;;;;;32.20;27.15;;;;;;;;;;525565;28;1117;-66
2023/01/30 00:49:08;;;;;;;32.07;27.17;;;;;;;;;;525510;28;1286;-65
2023/01/30 00:49:24;;;;;;;32.30;27.15;;;;;;;;;;523560;28;1202;-65
2023/01/30 00:49:41;;;;;;;31.93;26.83;;;;;;;;;;522020;28;1376;-65
2023/01/30 00:49:56;;;;;;;32.13;26.55;;;;;;;;;;519704;28;1447;-65
2023/01/30 00:50:11;;;;;;;31.13;26.47;;;;;;;;;;518312;28;1314;-65
2023/01/30 00:50:41;;;;;;;29.90;26.13;;;;;;;;;;519254;28;1439;-65
2023/01/30 00:50:57;;;;;;;31.30;26.05;;;;;;;;;;516759;28;1930;-65
2023/01/30 00:51:12;;;;;;;30.65;26.17;;;;;;;;;;520243;28;1267;-65
2023/01/30 00:51:27;;;;;;;31.13;26.88;;;;;;;;;;519849;28;1477;-65
2023/01/30 00:51:43;;;;;;;31.00;26.47;;;;;;;;;;519874;28;1220;-66
2023/01/30 00:51:59;;;;;;;29.55;25.38;;;;;;;;;;518365;28;1451;-65
2023/01/30 00:52:14;;;;;;;29.13;25.53;;;;;;;;;;521853;28;1203;-65
2023/01/30 00:52:29;;;;;;;30.17;26.30;;;;;;;;;;521091;28;1301;-65
2023/01/30 00:52:44;;;;;;;31.83;27.40;;;;;;;;;;518570;28;1171;-66
2023/01/30 00:53:00;;;;;;;31.77;27.23;;;;;;;;;;522029;28;1422;-65
2023/01/30 00:53:16;;;;;;;31.60;27.00;;;;;;;;;;520153;28;1284;-65
2023/01/30 00:53:31;;;;;;;32.13;27.05;;;;;;;;;;519506;28;1250;-65
2023/01/30 00:53:46;;;;;;;31.83;26.77;;;;;;;;;;516743;28;1244;-66
2023/01/30 00:54:02;;;;;;;31.90;26.70;;;;;;;;;;518157;28;1608;-65
2023/01/30 00:54:17;;;;;;;31.70;26.27;;;;;;;;;;519423;28;1401;-65
2023/01/30 00:54:33;;;;;;;30.83;26.23;;;;;;;;;;519928;28;1208;-65
2023/01/30 00:54:50;;;;;;;30.02;26.15;;;;;;;;;;519926;28;1322;-65
2023/01/30 00:55:06;;;;;;;29.77;25.92;;;;;;;;;;519989;28;986;-65
2023/01/30 00:55:21;;;;;;;30.65;26.40;;;;;;;;;;519298;28;1272;-65
2023/01/30 00:55:36;;;;;;;30.53;25.97;;;;;;;;;;519825;28;1075;-65
2023/01/30 00:55:52;;;;;;;30.13;25.93;;;;;;;;;;516536;28;1231;-65
2023/01/30 00:56:08;;;;;;;30.42;26.10;;;;;;;;;;518199;28;1358;-65
2023/01/30 00:56:23;;;;;;;29.80;25.58;;;;;;;;;;520111;28;1471;-65
2023/01/30 00:56:38;;;;;;;29.47;25.37;;;;;;;;;;518146;28;1448;-65
2023/01/30 00:56:54;;;;;;;30.53;25.93;;;;;;;;;;519566;28;1194;-65
2023/01/30 00:57:09;;;;;;;31.20;26.60;;;;;;;;;;521796;28;1194;-65
2023/01/30 00:57:24;;;;;;;30.70;25.73;;;;;;;;;;520596;28;1156;-65
2023/01/30 00:57:40;;;;;;;30.37;25.30;;;;;;;;;;521390;28;1216;-65
2023/01/30 00:57:55;;;;;;;28.95;25.48;;;;;;;;;;521571;28;1110;-65
2023/01/30 00:58:12;;;;;;;28.53;25.40;;;;;;;;;;521417;28;1263;-66
2023/01/30 00:58:27;;;;;;;28.98;25.30;;;;;;;;;;521828;28;1271;-65
2023/01/30 00:58:42;;;;;;;28.77;25.30;;;;;;;;;;520632;28;1520;-65
2023/01/30 00:58:58;;;;;;;29.42;25.75;;;;;;;;;;521101;28;1323;-65
2023/01/30 00:59:13;;;;;;;30.13;26.33;;;;;;;;;;523759;28;1286;-65
2023/01/30 00:59:29;;;;;;;31.75;26.75;;;;;;;;;;522754;28;1520;-65
2023/01/30 00:59:44;;;;;;;32.63;26.93;;;;;;;;;;520237;28;1193;-66
2023/01/30 00:59:59;;;;;;;31.10;26.57;;;;;;;;;;519951;28;1023;-65
2023/01/30 01:00:16;;;;;;;29.88;26.10;;;;;;;;;;520405;28;1249;-65
2023/01/30 01:00:32;;;;;;;30.13;25.60;;;;;;;;;;517303;28;1574;-64
2023/01/30 01:00:48;;;;;;;30.30;25.87;;;;;;;;;;517974;28;1435;-64
2023/01/30 01:01:04;;;;;;;30.92;26.33;;;;;;;;;;519755;28;1417;-65
2023/01/30 01:01:19;;;;;;;31.73;26.67;;;;;;;;;;521456;28;1519;-65
2023/01/30 01:01:34;;;;;;;31.10;26.17;;;;;;;;;;521733;28;1282;-65
2023/01/30 01:01:50;;;;;;;30.20;25.77;;;;;;;;;;521516;28;1246;-64
2023/01/30 01:02:05;;;;;;;30.30;25.97;;;;;;;;;;521332;28;1445;-65
2023/01/30 01:02:20;;;;;;;31.27;26.35;;;;;;;;;;521361;28;1262;-65
2023/01/30 01:02:36;;;;;;;30.70;26.20;;;;;;;;;;519107;28;1232;-65
2023/01/30 01:02:51;;;;;;;30.70;26.37;;;;;;;;;;521843;28;1342;-65
2023/01/30 01:03:07;;;;;;;30.92;26.67;;;;;;;;;;520050;28;1255;-65
2023/01/30 01:03:22;;;;;;;29.90;25.80;;;;;;;;;;519169;28;1453;-65
2023/01/30 01:03:37;;;;;;;30.35;25.83;;;;;;;;;;519124;28;1230;-65
2023/01/30 01:03:53;;;;;;;30.83;26.70;;;;;;;;;;520533;28;1426;-65
2023/01/30 01:04:09;;;;;;;29.43;25.77;;;;;;;;;;522780;28;1371;-66
2023/01/30 01:04:24;;;;;;;29.02;24.98;;;;;;;;;;523955;28;1431;-65
2023/01/30 01:04:42;;;;;;;28.43;24.73;;;;;;;;;;522814;28;1227;-64
2023/01/30 01:04:58;;;;;;;28.55;24.98;;;;;;;;;;521014;28;1284;-65
2023/01/30 01:05:13;;;;;;;29.83;25.73;;;;;;;;;;521218;28;1349;-65
2023/01/30 01:05:28;;;;;;;29.90;25.50;;;;;;;;;;524039;28;1426;-64
2023/01/30 01:05:44;;;;;;;28.87;24.80;;;;;;;;;;525286;28;1336;-65
2023/01/30 01:05:59;;;;;;;28.80;24.85;;;;;;;;;;522546;28;1210;-65
2023/01/30 01:06:15;;;;;;;28.73;25.53;;;;;;;;;;521209;28;1348;-64
2023/01/30 01:06:30;;;;;;;30.05;26.15;;;;;;;;;;523471;28;1282;-65
2023/01/30 01:06:46;;;;;;;31.23;25.97;;;;;;;;;;519064;28;1279;-66
2023/01/30 01:07:01;;;;;;;29.48;25.00;;;;;;;;;;517704;28;1293;-65
2023/01/30 01:07:17;;;;;;;29.00;25.07;;;;;;;;;;520016;28;1217;-65
2023/01/30 01:07:32;;;;;;;29.35;25.83;;;;;;;;;;517605;28;1347;-66
2023/01/30 01:07:48;;;;;;;29.17;25.57;;;;;;;;;;519513;28;1400;-65
2023/01/30 01:08:03;;;;;;;29.77;25.45;;;;;;;;;;519585;28;1184;-65
2023/01/30 01:08:21;;;;;;;30.37;25.80;;;;;;;;;;519259;28;1196;-65
2023/01/30 01:08:36;;;;;;;30.45;26.02;;;;;;;;;;522011;28;1301;-64
2023/01/30 01:08:51;;;;;;;31.60;27.00;;;;;;;;;;519111;28;1287;-66
2023/01/30 01:09:07;;;;;;;31.27;26.50;;;;;;;;;;521691;28;1284;-65
2023/01/30 01:09:22;;;;;;;31.63;26.03;;;;;;;;;;521746;28;1231;-65
2023/01/30 01:09:38;;;;;;;31.53;26.47;;;;;;;;;;521210;28;1195;-65
2023/01/30 01:09:53;;;;;;;30.90;26.48;;;;;;;;;;522783;28;1468;-65
2023/01/30 01:10:15;;;;;;;31.83;26.10;;;;;;;;;;522929;28;1240;-66
2023/01/30 01:10:31;;;;;;;30.70;26.98;;;;;;;;;;521220;28;1121;-65
2023/01/30 01:10:46;;;;;;;30.98;26.80;;;;;;;;;;521889;28;1997;-65
2023/01/30 01:11:01;;;;;;;31.03;26.33;;;;;;;;;;520165;28;1262;-65
2023/01/30 01:11:23;;;;;;;31.20;26.43;;;;;;;;;;519961;28;1353;-65
2023/01/30 01:11:38;;;;;;;29.52;25.73;;;;;;;;;;518655;28;1457;-65
2023/01/30 01:11:53;;;;;;;29.33;25.50;;;;;;;;;;519548;28;1325;-65
2023/01/30 01:12:08;;;;;;;29.02;25.02;;;;;;;;;;521152;28;1235;-65
2023/01/30 01:12:24;;;;;;;28.80;24.70;;;;;;;;;;522259;28;1258;-65
2023/01/30 01:12:39;;;;;;;28.80;25.00;;;;;;;;;;525185;28;1215;-64
2023/01/30 01:12:54;;;;;;;29.38;25.80;;;;;;;;;;526223;28;1231;-65
2023/01/30 01:13:10;;;;;;;29.93;26.27;;;;;;;;;;521880;28;1345;-64
2023/01/30 01:13:25;;;;;;;30.83;26.00;;;;;;;;;;519109;28;1178;-65
2023/01/30 01:13:40;;;;;;;30.58;25.58;;;;;;;;;;521025;28;1529;-64
2023/01/30 01:14:00;;;;;;;29.37;25.23;;;;;;;;;;518524;28;1359;-65
2023/01/30 01:14:15;;;;;;;29.83;25.05;;;;;;;;;;520561;28;1474;-64
2023/01/30 01:14:31;;;;;;;29.07;24.73;;;;;;;;;;521428;28;1173;-65
2023/01/30 01:14:46;;;;;;;28.73;24.98;;;;;;;;;;520898;28;1547;-65
2023/01/30 01:15:02;;;;;;;28.40;25.13;;;;;;;;;;520021;28;1038;-64
2023/01/30 01:15:18;;;;;;;28.98;25.52;;;;;;;;;;520430;28;1174;-64
2023/01/30 01:15:34;;;;;;;30.27;26.00;;;;;;;;;;519377;28;1297;-64
2023/01/30 01:15:49;;;;;;;30.75;26.23;;;;;;;;;;520946;28;1045;-64
2023/01/30 01:16:05;;;;;;;30.47;26.27;;;;;;;;;;521259;28;1121;-65
2023/01/30 01:16:21;;;;;;;30.27;26.03;;;;;;;;;;524582;28;1186;-64
2023/01/30 01:16:36;;;;;;;29.15;25.20;;;;;;;;;;524750;28;1397;-65
2023/01/30 01:16:52;;;;;;;28.77;24.83;;;;;;;;;;522723;28;1222;-65
2023/01/30 01:17:07;;;;;;;30.67;25.90;;;;;;;;;;521919;28;1499;-65
2023/01/30 01:17:22;;;;;;;31.77;26.20;;;;;;;;;;522046;28;1464;-64
2023/01/30 01:17:39;;;;;;;30.33;25.33;;;;;;;;;;520348;28;1240;-65
2023/01/30 01:17:54;;;;;;;29.35;25.10;;;;;;;;;;522016;28;1397;-65
2023/01/30 01:18:09;;;;;;;30.53;25.50;;;;;;;;;;522747;28;1208;-65
2023/01/30 01:18:25;;;;;;;30.10;25.00;;;;;;;;;;520905;28;1264;-65
2023/01/30 01:18:40;;;;;;;28.83;24.52;;;;;;;;;;521403;28;1320;-65
2023/01/30 01:18:55;;;;;;;28.83;24.73;;;;;;;;;;520137;28;1394;-64
2023/01/30 01:19:10;;;;;;;28.07;24.10;;;;;;;;;;519614;28;1212;-64
2023/01/30 01:19:26;;;;;;;28.30;23.90;;;;;;;;;;519142;28;1204;-65
2023/01/30 01:19:42;;;;;;;28.10;23.87;;;;;;;;;;522241;28;1322;-65
2023/01/30 01:19:57;;;;;;;27.03;23.43;;;;;;;;;;519297;28;1183;-65
2023/01/30 01:20:12;;;;;;;27.63;23.57;;;;;;;;;;519334;28;1210;-65
2023/01/30 01:20:28;;;;;;;28.85;24.23;;;;;;;;;;519872;28;1613;-65
2023/01/30 01:20:43;;;;;;;28.30;24.27;;;;;;;;;;520202;28;1420;-65
2023/01/30 01:20:58;;;;;;;27.40;24.00;;;;;;;;;;520105;28;1460;-65
2023/01/30 01:21:14;;;;;;;27.52;24.05;;;;;;;;;;519630;28;1476;-65
2023/01/30 01:21:29;;;;;;;28.27;24.17;;;;;;;;;;519896;28;1334;-65
2023/01/30 01:21:44;;;;;;;29.43;24.93;;;;;;;;;;519926;28;1082;-65
2023/01/30 01:22:00;;;;;;;27.83;24.58;;;;;;;;;;518597;28;1685;-65
2023/01/30 01:22:15;;;;;;;28.17;24.90;;;;;;;;;;517581;28;1273;-65
2023/01/30 01:22:30;;;;;;;30.30;25.83;;;;;;;;;;519066;28;1195;-65
2023/01/30 01:22:49;;;;;;;29.80;25.23;;;;;;;;;;517010;28;1255;-65
2023/01/30 01:23:04;;;;;;;27.60;24.20;;;;;;;;;;520195;28;1562;-65
2023/01/30 01:23:19;;;;;;;27.85;24.25;;;;;;;;;;521150;28;1315;-65
2023/01/30 01:23:35;;;;;;;28.77;24.33;;;;;;;;;;523797;28;1176;-65
2023/01/30 01:23:52;;;;;;;28.43;24.10;;;;;;;;;;520544;28;1439;-65
2023/01/30 01:24:15;;;;;;;28.04;24.49;;;;;;;;;;448432;28;10000799;-65
2023/01/30 01:24:39;;;;;;;28.04;24.51;;;;;;;;;;137533;28;10000924;-65
2023/01/30 01:24:55;;;;;;;27.27;23.70;;;;;;;;;;520529;28;1930;-64
2023/01/30 01:25:11;;;;;;;27.25;23.70;;;;;;;;;;519097;28;1389;-65
2023/01/30 01:25:26;;;;;;;28.27;23.93;;;;;;;;;;520760;28;1606;-65
2023/01/30 01:25:41;;;;;;;28.13;23.77;;;;;;;;;;517713;28;1202;-65
2023/01/30 01:26:00;;;;;;;27.50;23.93;;;;;;;;;;518367;28;1385;-65
2023/01/30 01:26:16;;;;;;;27.15;23.75;;;;;;;;;;519001;28;1404;-65
2023/01/30 01:26:32;;;;;;;28.17;24.25;;;;;;;;;;516554;28;1568;-65
2023/01/30 01:26:47;;;;;;;28.63;24.38;;;;;;;;;;515893;28;1164;-65
2023/01/30 01:27:02;;;;;;;27.23;23.93;;;;;;;;;;517377;28;1265;-64
2023/01/30 01:27:18;;;;;;;27.05;23.95;;;;;;;;;;519907;28;1629;-65
2023/01/30 01:27:34;;;;;;;27.30;23.93;;;;;;;;;;519480;28;1087;-64
2023/01/30 01:27:49;;;;;;;28.00;24.73;;;;;;;;;;519788;28;1208;-65
2023/01/30 01:28:05;;;;;;;29.07;25.30;;;;;;;;;;518177;28;1302;-65
2023/01/30 01:28:21;;;;;;;29.45;24.98;;;;;;;;;;519549;28;1168;-65
2023/01/30 01:28:36;;;;;;;29.58;24.80;;;;;;;;;;521457;28;1378;-65
2023/01/30 01:28:56;;;;;;;28.63;24.43;;;;;;;;;;519847;28;1441;-64
2023/01/30 01:29:15;;;;;;;27.83;24.10;;;;;;;;;;518925;28;1379;-66
2023/01/30 01:29:31;;;;;;;27.25;23.42;;;;;;;;;;519720;28;1162;-65
2023/01/30 01:29:46;;;;;;;28.50;24.07;;;;;;;;;;519488;28;1094;-65
2023/01/30 01:30:02;;;;;;;28.73;24.23;;;;;;;;;;518857;28;1300;-65
2023/01/30 01:30:17;;;;;;;28.33;24.23;;;;;;;;;;520733;28;1464;-65
2023/01/30 01:30:32;;;;;;;28.50;24.63;;;;;;;;;;521723;28;1215;-64
2023/01/30 01:30:48;;;;;;;27.97;24.53;;;;;;;;;;520291;28;1989;-65
2023/01/30 01:31:11;;;;;;;28.13;24.17;;;;;;;;;;522458;28;1317;-64
2023/01/30 01:31:26;;;;;;;29.40;24.55;;;;;;;;;;523732;28;1093;-64
2023/01/30 01:31:43;;;;;;;28.60;24.73;;;;;;;;;;521905;28;1148;-65
2023/01/30 01:31:58;;;;;;;28.65;24.55;;;;;;;;;;524102;28;1262;-64
2023/01/30 01:32:14;;;;;;;27.50;23.77;;;;;;;;;;524864;28;1557;-65
2023/01/30 01:32:29;;;;;;;26.63;23.47;;;;;;;;;;522826;28;1411;-65
2023/01/30 01:32:44;;;;;;;27.42;24.08;;;;;;;;;;520856;28;1540;-65
2023/01/30 01:33:00;;;;;;;28.57;24.40;;;;;;;;;;521945;28;1243;-65
2023/01/30 01:33:15;;;;;;;28.87;24.50;;;;;;;;;;523866;28;1414;-65
2023/01/30 01:33:30;;;;;;;28.35;24.10;;;;;;;;;;522080;28;1518;-66
2023/01/30 01:33:46;;;;;;;28.43;24.00;;;;;;;;;;525621;28;1285;-65
2023/01/30 01:34:01;;;;;;;29.43;24.93;;;;;;;;;;525567;28;1309;-65
2023/01/30 01:34:16;;;;;;;29.20;25.35;;;;;;;;;;523543;28;1373;-65
2023/01/30 01:34:31;;;;;;;27.77;24.40;;;;;;;;;;523763;28;1182;-65
2023/01/30 01:34:47;;;;;;;28.27;24.10;;;;;;;;;;524323;28;1144;-65
2023/01/30 01:35:02;;;;;;;29.63;24.95;;;;;;;;;;520369;28;1290;-65
2023/01/30 01:35:18;;;;;;;29.30;25.13;;;;;;;;;;521205;28;1176;-65
2023/01/30 01:35:33;;;;;;;29.13;24.80;;;;;;;;;;521956;28;1253;-65
2023/01/30 01:35:49;;;;;;;29.57;25.10;;;;;;;;;;523790;28;1339;-65
2023/01/30 01:36:05;;;;;;;29.48;25.17;;;;;;;;;;524823;28;1313;-65
2023/01/30 01:36:21;;;;;;;29.05;24.90;;;;;;;;;;522736;28;1468;-66
2023/01/30 01:36:37;;;;;;;28.50;24.45;;;;;;;;;;520597;28;1446;-66
2023/01/30 01:36:52;;;;;;;27.58;23.88;;;;;;;;;;521361;28;1155;-65
2023/01/30 01:37:07;;;;;;;27.30;24.17;;;;;;;;;;523511;28;1289;-65
2023/01/30 01:37:22;;;;;;;27.63;24.43;;;;;;;;;;523872;28;1094;-65
2023/01/30 01:37:38;;;;;;;27.98;24.17;;;;;;;;;;518081;28;1444;-65
2023/01/30 01:37:54;;;;;;;28.00;24.10;;;;;;;;;;518836;28;1264;-66
2023/01/30 01:38:09;;;;;;;27.83;23.88;;;;;;;;;;521106;28;1313;-65
2023/01/30 01:38:24;;;;;;;27.57;23.80;;;;;;;;;;519657;28;1122;-65
2023/01/30 01:38:41;;;;;;;27.98;24.10;;;;;;;;;;519883;28;1264;-65
2023/01/30 01:38:56;;;;;;;29.20;24.83;;;;;;;;;;520287;28;1474;-66
2023/01/30 01:39:11;;;;;;;29.73;25.30;;;;;;;;;;521781;28;1295;-65
2023/01/30 01:41:00;;;;;;;30.63;25.92;;;;;;;;;;521896;28;1216;-66
2023/01/30 01:41:04;;;;;;;30.85;26.02;;;;;;;;;;525380;28;1014;-66
2023/01/30 01:41:20;;;;;;;27.77;24.10;;;;;;;;;;523429;27;1565;-66